Time;durP1;ratioP1;P1;durP2;ratioP2;P2;SDS_P1;SDS_P2;PMS_P1;PMS_P2;Temp;Humidity;BMP_temperature;BMP_pressure;BME280_temperature;BME280_humidity;BME280_pressure;Samples;Min_cycle;Max_cycle;Signal;HPM_P1;HPM_P2
2023/07/15 00:01:24;;;;;;;8.82;2.70;;;20.10;97.40;;;;;;5018925;28;20175;-94
2023/07/15 00:03:52;;;;;;;6.18;2.20;;;20.00;96.90;;;;;;5018002;28;20177;-93
2023/07/15 00:06:20;;;;;;;11.27;2.65;;;20.00;97.00;;;;;;5018312;28;20174;-91
2023/07/15 00:08:48;;;;;;;5.38;2.47;;;20.00;96.90;;;;;;5018666;28;20226;-91
2023/07/15 00:11:42;;;;;;;7.88;2.55;;;19.90;97.10;;;;;;5017891;28;20166;-92
2023/07/15 00:14:23;;;;;;;4.30;2.58;;;19.90;97.30;;;;;;5009292;28;20332;-93
2023/07/15 00:16:50;;;;;;;6.20;2.38;;;19.90;97.40;;;;;;5018236;28;20251;-95
2023/07/15 00:19:20;;;;;;;8.20;2.72;;;19.80;97.20;;;;;;5017864;28;20228;-93
2023/07/15 00:21:48;;;;;;;8.85;2.55;;;19.80;97.30;;;;;;5017586;28;20234;-92
2023/07/15 00:24:14;;;;;;;8.68;2.63;;;19.70;97.20;;;;;;5017576;28;20205;-94
2023/07/15 00:26:40;;;;;;;4.38;2.50;;;19.80;97.50;;;;;;5018652;28;20641;-93
2023/07/15 00:29:07;;;;;;;7.10;2.60;;;19.70;97.50;;;;;;5017308;28;20205;-92
2023/07/15 00:31:35;;;;;;;7.63;2.60;;;19.70;97.40;;;;;;5018117;28;20167;-92
2023/07/15 00:34:01;;;;;;;7.47;2.42;;;19.70;97.40;;;;;;5019812;28;20249;-92
2023/07/15 00:36:28;;;;;;;6.00;2.42;;;19.60;97.40;;;;;;5020820;28;20166;-92
2023/07/15 00:38:54;;;;;;;3.75;2.33;;;19.60;97.20;;;;;;5020770;28;20188;-92
2023/07/15 00:41:30;;;;;;;4.95;2.80;;;19.50;97.30;;;;;;5020139;28;20171;-93
2023/07/15 00:43:58;;;;;;;5.90;2.50;;;19.50;97.50;;;;;;5020256;28;20193;-91
2023/07/15 00:47:02;;;;;;;4.78;2.47;;;19.50;97.50;;;;;;5020909;28;20170;-93
2023/07/15 00:49:31;;;;;;;5.30;2.55;;;19.50;97.20;;;;;;5020474;28;20551;-92
2023/07/15 00:52:14;;;;;;;5.55;2.40;;;19.50;97.20;;;;;;5021005;28;20181;-93
2023/07/15 00:54:49;;;;;;;7.72;2.35;;;19.50;97.20;;;;;;5020534;28;20195;-94
2023/07/15 00:57:16;;;;;;;3.53;2.40;;;19.50;97.10;;;;;;5020350;28;20201;-94
2023/07/15 00:59:46;;;;;;;6.18;2.40;;;19.50;97.30;;;;;;5019834;28;20174;-95
2023/07/15 01:02:15;;;;;;;3.25;2.60;;;19.60;97.30;;;;;;5019609;28;20221;-95
2023/07/15 01:04:41;;;;;;;6.47;2.55;;;19.60;97.10;;;;;;5020102;28;20203;-92
2023/07/15 01:07:07;;;;;;;5.60;2.70;;;19.50;97.10;;;;;;5019765;28;20300;-94
2023/07/15 01:09:34;;;;;;;6.32;2.60;;;19.50;97.40;;;;;;5020373;28;20205;-93
2023/07/15 01:12:00;;;;;;;4.30;2.28;;;19.50;97.20;;;;;;5019874;28;20162;-91
2023/07/15 01:14:29;;;;;;;6.22;2.10;;;19.50;97.20;;;;;;5020679;28;20206;-92
2023/07/15 01:16:55;;;;;;;5.78;2.50;;;19.50;97.30;;;;;;5020789;28;20158;-94
2023/07/15 01:19:22;;;;;;;5.53;2.50;;;19.40;97.30;;;;;;5020277;28;20171;-94
2023/07/15 01:21:50;;;;;;;5.07;2.13;;;19.40;97.60;;;;;;5019421;28;20292;-93
2023/07/15 01:24:17;;;;;;;4.40;2.50;;;19.40;97.30;;;;;;5019608;28;20285;-94
2023/07/15 01:26:43;;;;;;;8.50;2.85;;;19.40;97.40;;;;;;5019478;28;20265;-92
2023/07/15 01:29:09;;;;;;;5.55;2.38;;;19.40;97.30;;;;;;5020086;28;20313;-93
2023/07/15 01:31:36;;;;;;;5.68;2.80;;;19.40;97.50;;;;;;5019626;28;20178;-94
2023/07/15 01:34:02;;;;;;;4.78;2.78;;;19.40;97.40;;;;;;5020047;28;20206;-93
2023/07/15 01:36:28;;;;;;;5.05;2.83;;;19.30;97.50;;;;;;5020269;28;20171;-94
2023/07/15 01:38:54;;;;;;;6.10;2.30;;;19.30;97.70;;;;;;5019440;28;20572;-94
2023/07/15 01:43:53;;;;;;;4.63;2.47;;;19.20;97.60;;;;;;4979628;28;20239;-94
2023/07/15 01:46:19;;;;;;;6.95;2.50;;;19.20;97.50;;;;;;4965028;28;20205;-95
2023/07/15 01:48:45;;;;;;;6.50;2.53;;;19.20;97.70;;;;;;4973735;23;20223;-90
2023/07/15 01:51:11;;;;;;;4.45;2.35;;;19.20;97.70;;;;;;4994965;28;20195;-90
2023/07/15 01:53:36;;;;;;;8.18;2.88;;;19.20;97.90;;;;;;4994693;28;20270;-90
2023/07/15 01:56:02;;;;;;;5.68;2.35;;;19.10;97.90;;;;;;4977424;28;20612;-90
2023/07/15 01:58:28;;;;;;;9.10;2.72;;;19.10;97.80;;;;;;4978432;28;20176;-90
2023/07/15 02:00:53;;;;;;;5.25;2.58;;;19.10;98.20;;;;;;4977639;28;20553;-90
2023/07/15 02:03:19;;;;;;;5.10;2.65;;;19.00;98.00;;;;;;4978667;28;20176;-90
2023/07/15 02:05:45;;;;;;;7.07;2.30;;;19.00;98.10;;;;;;4977456;28;20235;-91
2023/07/15 02:08:11;;;;;;;4.07;2.55;;;18.90;98.20;;;;;;4978293;28;20247;-90
2023/07/15 02:10:38;;;;;;;5.18;2.53;;;18.90;98.30;;;;;;4978444;28;20231;-90
2023/07/15 02:13:04;;;;;;;4.13;2.33;;;18.90;98.20;;;;;;4978261;28;20172;-90
2023/07/15 02:15:30;;;;;;;3.15;2.13;;;18.90;98.20;;;;;;4978367;28;20204;-91
2023/07/15 02:17:55;;;;;;;5.82;2.70;;;18.90;97.80;;;;;;4978622;28;20176;-90
2023/07/15 02:20:21;;;;;;;4.63;2.40;;;18.90;97.90;;;;;;4978326;28;20612;-90
2023/07/15 02:22:47;;;;;;;6.30;2.72;;;19.00;98.20;;;;;;4978039;28;20183;-90
2023/07/15 02:25:13;;;;;;;9.05;2.53;;;18.90;97.90;;;;;;4977929;28;20291;-90
2023/07/15 02:27:38;;;;;;;9.23;2.63;;;18.90;98.70;;;;;;4977999;28;20646;-90
2023/07/15 02:30:08;;;;;;;6.63;2.35;;;18.80;98.90;;;;;;4995095;28;20295;-90
2023/07/15 02:32:39;;;;;;;5.88;2.40;;;18.80;99.50;;;;;;4978035;28;20168;-90
2023/07/15 02:35:10;;;;;;;5.38;2.40;;;18.70;99.70;;;;;;4978060;28;20195;-91
2023/07/15 02:37:41;;;;;;;5.38;2.35;;;18.60;99.50;;;;;;4977612;28;20176;-91
2023/07/15 02:40:08;;;;;;;4.07;2.30;;;18.60;99.40;;;;;;4977813;28;20184;-91
2023/07/15 02:42:34;;;;;;;4.93;2.60;;;18.60;99.50;;;;;;4977916;28;20631;-91
2023/07/15 02:45:04;;;;;;;3.65;2.17;;;18.60;99.40;;;;;;4977410;28;20211;-91
2023/07/15 02:47:34;;;;;;;6.10;2.25;;;18.60;99.70;;;;;;4977876;28;20303;-90
2023/07/15 02:50:06;;;;;;;5.72;2.50;;;18.60;99.30;;;;;;4977057;28;20238;-91
2023/07/15 02:52:32;;;;;;;5.68;2.25;;;18.50;99.10;;;;;;4977438;28;20180;-91
2023/07/15 02:55:00;;;;;;;3.95;2.40;;;18.60;99.40;;;;;;4976655;28;20206;-90
2023/07/15 02:57:26;;;;;;;3.80;2.45;;;18.50;99.20;;;;;;4977503;28;20176;-91
2023/07/15 02:59:53;;;;;;;5.30;2.40;;;18.50;99.40;;;;;;4977535;28;20184;-91
2023/07/15 03:02:20;;;;;;;4.68;2.47;;;18.50;99.20;;;;;;4977612;28;20176;-91
2023/07/15 03:04:47;;;;;;;6.82;2.65;;;18.60;98.80;;;;;;4977377;28;20254;-91
2023/07/15 03:07:13;;;;;;;6.72;2.45;;;18.50;98.70;;;;;;4977499;28;20219;-91
2023/07/15 03:09:39;;;;;;;5.28;2.20;;;18.60;99.10;;;;;;4977130;28;20203;-91
2023/07/15 03:12:05;;;;;;;7.43;2.60;;;18.50;99.10;;;;;;4977136;28;20652;-90
2023/07/15 03:14:31;;;;;;;6.13;2.63;;;18.50;99.20;;;;;;4977297;28;20210;-91
2023/07/15 03:16:57;;;;;;;4.03;2.53;;;18.50;99.20;;;;;;4977207;28;20180;-91
2023/07/15 03:19:23;;;;;;;6.07;2.67;;;18.50;99.40;;;;;;4977083;28;20175;-91
2023/07/15 03:21:49;;;;;;;5.50;2.42;;;18.50;99.60;;;;;;4976970;28;20179;-91
2023/07/15 03:24:14;;;;;;;6.05;2.05;;;18.50;99.20;;;;;;4977106;28;20203;-91
2023/07/15 03:26:41;;;;;;;5.57;2.50;;;18.50;99.20;;;;;;4994663;28;20183;-91
2023/07/15 03:29:08;;;;;;;5.13;2.38;;;18.50;99.40;;;;;;4976923;28;20208;-91
2023/07/15 03:31:35;;;;;;;4.72;2.13;;;18.50;99.60;;;;;;4976985;28;20172;-91
2023/07/15 03:34:01;;;;;;;4.75;2.20;;;18.50;99.50;;;;;;4976834;28;20176;-90
2023/07/15 03:36:27;;;;;;;8.38;2.50;;;18.50;99.60;;;;;;4976892;28;20263;-91
2023/07/15 03:38:53;;;;;;;4.97;2.20;;;18.50;99.60;;;;;;4977166;28;20270;-90
2023/07/15 03:41:19;;;;;;;5.82;2.00;;;18.40;99.60;;;;;;4976896;28;20183;-91
2023/07/15 03:43:45;;;;;;;6.43;2.40;;;18.40;99.90;;;;;;4977364;28;20802;-92
2023/07/15 03:46:12;;;;;;;10.35;2.28;;;18.40;99.90;;;;;;4976776;28;20203;-91
2023/07/15 03:48:39;;;;;;;7.90;2.75;;;18.30;99.90;;;;;;4976755;28;20207;-90
2023/07/15 03:51:06;;;;;;;4.03;2.30;;;18.30;99.90;;;;;;4976948;28;20231;-91
2023/07/15 03:53:32;;;;;;;3.63;2.28;;;18.30;99.90;;;;;;4977343;28;20175;-91
2023/07/15 03:55:58;;;;;;;3.90;2.45;;;18.30;99.90;;;;;;4977102;28;20200;-91
2023/07/15 03:58:24;;;;;;;3.90;2.28;;;18.30;99.90;;;;;;4976992;28;20231;-92
2023/07/15 04:00:54;;;;;;;5.75;2.40;;;18.30;99.90;;;;;;4977049;28;20242;-92
2023/07/15 04:03:19;;;;;;;3.78;2.13;;;18.30;99.90;;;;;;4976896;28;20547;-91
2023/07/15 04:05:46;;;;;;;5.53;2.17;;;18.30;99.90;;;;;;4977345;28;20298;-91
2023/07/15 04:08:12;;;;;;;3.15;2.22;;;18.30;99.90;;;;;;4980606;28;20610;-91
2023/07/15 04:10:38;;;;;;;5.15;2.72;;;18.30;99.90;;;;;;4980702;28;20226;-91
2023/07/15 04:13:04;;;;;;;7.15;2.63;;;18.30;99.90;;;;;;4980558;28;20191;-91
2023/07/15 04:15:32;;;;;;;2.72;1.90;;;18.30;99.90;;;;;;4980544;28;20206;-91
2023/07/15 04:17:58;;;;;;;6.65;2.25;;;18.30;99.90;;;;;;4980551;28;20204;-91
2023/07/15 04:20:25;;;;;;;5.30;2.30;;;18.30;99.90;;;;;;4980212;28;20215;-91
2023/07/15 04:22:50;;;;;;;2.80;2.20;;;18.30;99.90;;;;;;4980388;28;20183;-91
2023/07/15 04:25:16;;;;;;;5.90;2.50;;;18.30;99.90;;;;;;4980313;28;20195;-91
2023/07/15 04:27:42;;;;;;;5.32;2.42;;;18.30;99.90;;;;;;4980350;28;20180;-92
2023/07/15 04:30:11;;;;;;;6.47;2.63;;;18.40;99.90;;;;;;4980164;28;20694;-91
2023/07/15 04:32:38;;;;;;;5.80;2.53;;;18.40;99.90;;;;;;4980240;28;20184;-92
2023/07/15 04:35:04;;;;;;;5.07;2.50;;;18.40;99.90;;;;;;4979959;28;20199;-90
2023/07/15 04:37:30;;;;;;;4.45;2.22;;;18.40;99.90;;;;;;4980251;28;20175;-91
2023/07/15 04:39:56;;;;;;;3.28;2.17;;;18.40;99.90;;;;;;4979988;28;20240;-90
2023/07/15 04:42:22;;;;;;;4.95;1.90;;;18.50;99.90;;;;;;4979830;28;20172;-91
2023/07/15 04:44:48;;;;;;;5.35;2.40;;;18.50;99.90;;;;;;4979611;28;20228;-90
2023/07/15 04:47:14;;;;;;;3.80;2.50;;;18.50;99.90;;;;;;4980179;28;20179;-90
2023/07/15 04:49:39;;;;;;;5.00;2.20;;;18.60;99.90;;;;;;4979580;28;20227;-91
2023/07/15 04:52:05;;;;;;;4.07;2.20;;;18.70;99.90;;;;;;4979956;28;20184;-91
2023/07/15 04:54:31;;;;;;;4.72;2.55;;;18.80;99.90;;;;;;4979948;28;20213;-90
2023/07/15 04:56:57;;;;;;;6.60;2.42;;;19.00;99.90;;;;;;4979656;28;20731;-91
2023/07/15 04:59:23;;;;;;;3.25;2.10;;;19.10;99.90;;;;;;4979784;28;20184;-91
2023/07/15 05:01:49;;;;;;;3.03;2.10;;;19.10;99.90;;;;;;4979338;28;20183;-91
2023/07/15 05:04:15;;;;;;;4.70;2.13;;;19.20;99.90;;;;;;4979205;28;20200;-90
2023/07/15 05:06:40;;;;;;;7.07;2.35;;;19.30;99.90;;;;;;4979349;28;20313;-90
2023/07/15 05:09:07;;;;;;;5.40;1.88;;;19.40;99.90;;;;;;4979480;28;20206;-91
2023/07/15 05:11:32;;;;;;;4.80;2.28;;;19.50;99.90;;;;;;4979292;28;20175;-91
2023/07/15 05:13:58;;;;;;;3.97;2.08;;;19.70;99.90;;;;;;4978925;28;20179;-90
2023/07/15 05:16:28;;;;;;;2.92;2.05;;;19.80;99.90;;;;;;4979475;28;20164;-92
2023/07/15 05:18:54;;;;;;;4.25;1.88;;;19.90;99.90;;;;;;4978310;28;20538;-91
2023/07/15 05:21:20;;;;;;;3.88;2.15;;;20.00;99.90;;;;;;4979566;28;20172;-91
2023/07/15 05:23:46;;;;;;;4.40;2.45;;;20.10;99.90;;;;;;4979306;28;20176;-91
2023/07/15 05:26:12;;;;;;;3.15;1.98;;;20.20;99.90;;;;;;4979243;28;20203;-90
2023/07/15 05:28:38;;;;;;;3.47;2.05;;;20.30;99.90;;;;;;4979039;28;20219;-90
2023/07/15 05:31:04;;;;;;;5.70;2.20;;;20.30;99.90;;;;;;4979273;28;20160;-91
2023/07/15 05:33:30;;;;;;;3.42;2.17;;;20.40;99.90;;;;;;4979320;28;20164;-91
2023/07/15 05:35:56;;;;;;;5.07;2.08;;;20.50;99.90;;;;;;4979191;28;20242;-91
2023/07/15 05:38:24;;;;;;;3.88;2.10;;;20.60;99.90;;;;;;4978938;28;20168;-91
2023/07/15 05:40:50;;;;;;;4.70;2.28;;;20.70;99.90;;;;;;4979032;28;20259;-91
2023/07/15 05:43:16;;;;;;;4.40;2.33;;;20.80;99.90;;;;;;4984365;28;20184;-90
2023/07/15 05:45:42;;;;;;;3.92;2.05;;;20.80;99.90;;;;;;4978527;28;20203;-89
2023/07/15 05:48:08;;;;;;;3.08;2.17;;;20.90;99.90;;;;;;4979440;28;20208;-91
2023/07/15 05:50:36;;;;;;;3.03;1.95;;;20.90;99.90;;;;;;4978539;28;20299;-90
2023/07/15 05:53:04;;;;;;;3.72;1.92;;;20.90;99.90;;;;;;4978582;28;20180;-91
2023/07/15 05:55:31;;;;;;;6.63;2.03;;;20.90;99.90;;;;;;4978563;28;20254;-92
2023/07/15 05:57:57;;;;;;;3.08;2.00;;;20.90;99.90;;;;;;4978031;28;20172;-91
2023/07/15 06:00:23;;;;;;;4.03;1.95;;;21.10;99.90;;;;;;4978335;28;20239;-93
2023/07/15 06:02:49;;;;;;;3.33;2.00;;;21.10;99.90;;;;;;4978407;28;20234;-95
2023/07/15 06:05:15;;;;;;;5.03;2.00;;;21.20;99.90;;;;;;4979061;28;20219;-93
2023/07/15 06:07:40;;;;;;;6.05;2.00;;;21.30;99.90;;;;;;4979491;28;20230;-93
2023/07/15 06:10:06;;;;;;;5.28;1.98;;;21.50;99.70;;;;;;4978854;28;20675;-93
2023/07/15 06:12:32;;;;;;;2.58;1.75;;;21.60;99.80;;;;;;4978671;28;20168;-92
2023/07/15 06:14:59;;;;;;;4.68;1.88;;;21.70;99.90;;;;;;4981244;28;20560;-92
2023/07/15 06:17:41;;;;;;;4.25;1.80;;;21.90;99.90;;;;;;4979105;28;20251;-92
2023/07/15 06:20:07;;;;;;;3.88;1.90;;;22.00;99.50;;;;;;4978820;28;20176;-92
2023/07/15 06:22:35;;;;;;;3.20;1.77;;;22.20;99.00;;;;;;4979160;28;20204;-92
2023/07/15 06:25:17;;;;;;;4.03;1.77;;;22.30;98.80;;;;;;4979000;28;20734;-92
2023/07/15 06:27:47;;;;;;;3.67;1.58;;;22.50;99.00;;;;;;4979941;28;20180;-91
2023/07/15 06:30:15;;;;;;;2.40;1.70;;;22.60;98.60;;;;;;4979719;28;20211;-90
2023/07/15 06:32:43;;;;;;;2.97;1.90;;;22.70;98.80;;;;;;4978743;28;20171;-90
2023/07/15 06:35:17;;;;;;;9.35;2.13;;;22.80;98.10;;;;;;4979158;28;20199;-91
2023/07/15 06:37:47;;;;;;;3.25;1.85;;;22.90;97.90;;;;;;4978963;28;20164;-92
2023/07/15 06:40:19;;;;;;;3.67;1.73;;;23.00;97.90;;;;;;4977650;28;20176;-91
2023/07/15 06:42:46;;;;;;;3.00;1.65;;;23.10;98.40;;;;;;4978319;28;20230;-88
2023/07/15 06:45:19;;;;;;;3.53;1.85;;;23.20;96.70;;;;;;4977547;28;20211;-88
2023/07/15 06:47:47;;;;;;;2.85;1.80;;;23.30;97.10;;;;;;4977727;28;20183;-90
2023/07/15 06:50:13;;;;;;;4.22;1.85;;;23.40;97.20;;;;;;4977168;28;20302;-89
2023/07/15 06:52:39;;;;;;;5.25;1.80;;;23.60;96.80;;;;;;4978751;28;20275;-88
2023/07/15 06:55:06;;;;;;;3.65;1.85;;;23.70;96.60;;;;;;4979181;28;20716;-86
2023/07/15 06:57:33;;;;;;;4.78;1.70;;;24.00;96.20;;;;;;4977046;28;20184;-89
2023/07/15 06:59:59;;;;;;;4.88;2.10;;;24.10;96.60;;;;;;4982951;28;20643;-87
2023/07/15 07:02:25;;;;;;;8.18;1.95;;;24.20;96.80;;;;;;4996364;28;20267;-88
2023/07/15 07:04:50;;;;;;;3.95;1.60;;;24.30;96.10;;;;;;5012746;28;20199;-87
2023/07/15 07:07:22;;;;;;;2.78;1.90;;;24.50;95.30;;;;;;4988352;28;20191;-90
2023/07/15 07:09:47;;;;;;;3.65;1.80;;;24.70;95.50;;;;;;4982718;28;20574;-90
2023/07/15 07:12:14;;;;;;;4.38;2.03;;;24.90;95.10;;;;;;4975663;28;20183;-87
2023/07/15 07:14:40;;;;;;;4.43;1.85;;;25.00;94.70;;;;;;4974564;28;20211;-89
2023/07/15 07:17:06;;;;;;;5.60;1.83;;;25.20;94.90;;;;;;4975572;28;20179;-88
2023/07/15 07:19:32;;;;;;;6.53;1.85;;;25.30;94.70;;;;;;4978038;28;20168;-88
2023/07/15 07:21:58;;;;;;;5.97;2.10;;;25.50;95.80;;;;;;4995447;28;20178;-89
2023/07/15 07:24:23;;;;;;;4.13;1.92;;;25.60;94.00;;;;;;4995894;28;20202;-90
2023/07/15 07:26:50;;;;;;;4.78;2.20;;;25.70;94.70;;;;;;4995471;28;20164;-89
2023/07/15 07:29:16;;;;;;;2.50;1.60;;;25.80;94.20;;;;;;4994958;28;20206;-88
2023/07/15 07:31:41;;;;;;;4.10;2.00;;;25.90;93.60;;;;;;5010129;28;20170;-89
2023/07/15 07:34:07;;;;;;;4.53;1.75;;;26.00;94.10;;;;;;4995540;28;20167;-87
2023/07/15 07:36:33;;;;;;;4.18;1.90;;;26.10;94.10;;;;;;4995740;28;20243;-87
2023/07/15 07:38:58;;;;;;;5.93;1.90;;;26.20;94.10;;;;;;4978684;28;20239;-88
2023/07/15 07:41:24;;;;;;;2.78;1.50;;;26.30;93.80;;;;;;4977764;28;20175;-88
2023/07/15 07:43:50;;;;;;;3.42;1.90;;;26.40;93.10;;;;;;4981224;28;20189;-88
2023/07/15 07:46:15;;;;;;;2.70;1.63;;;26.50;93.20;;;;;;4989474;28;20207;-89
2023/07/15 07:48:42;;;;;;;4.25;1.70;;;26.50;94.10;;;;;;4998330;28;20209;-88
2023/07/15 07:51:08;;;;;;;4.60;1.80;;;26.60;93.50;;;;;;4989635;28;20690;-87
2023/07/15 07:53:33;;;;;;;3.53;1.80;;;26.80;93.20;;;;;;4995658;28;20183;-91
2023/07/15 07:55:59;;;;;;;2.92;1.90;;;26.80;93.80;;;;;;4996191;28;20195;-90
2023/07/15 07:58:25;;;;;;;4.15;1.98;;;26.90;93.70;;;;;;4995540;28;20193;-93
2023/07/15 08:00:51;;;;;;;5.22;2.33;;;27.00;93.10;;;;;;4996732;28;20218;-93
2023/07/15 08:03:17;;;;;;;2.95;1.83;;;27.10;92.80;;;;;;4996484;28;20258;-92
2023/07/15 08:05:44;;;;;;;3.47;2.00;;;27.10;93.30;;;;;;4996285;28;20214;-92
2023/07/15 08:08:11;;;;;;;4.80;1.80;;;27.20;93.70;;;;;;4996481;28;20183;-92
2023/07/15 08:10:37;;;;;;;4.22;1.90;;;27.20;93.40;;;;;;4995651;28;20175;-91
2023/07/15 08:13:05;;;;;;;2.30;1.55;;;27.20;93.00;;;;;;4983567;28;20246;-93
2023/07/15 08:15:32;;;;;;;2.08;1.60;;;27.40;93.20;;;;;;4975095;28;20196;-92
2023/07/15 08:17:59;;;;;;;2.80;1.90;;;27.50;93.00;;;;;;4975239;28;20218;-93
2023/07/15 08:20:24;;;;;;;5.82;1.92;;;27.60;93.40;;;;;;4976063;28;20160;-93
2023/07/15 08:22:50;;;;;;;5.75;1.70;;;27.60;93.30;;;;;;4976487;28;20242;-92
2023/07/15 08:25:16;;;;;;;5.85;1.60;;;27.70;93.40;;;;;;4976414;28;20212;-92
2023/07/15 08:27:42;;;;;;;4.38;1.60;;;27.80;92.80;;;;;;4976456;28;20188;-92
2023/07/15 08:30:08;;;;;;;4.80;1.80;;;27.90;92.80;;;;;;4976683;28;20192;-92
2023/07/15 08:32:34;;;;;;;4.15;1.58;;;28.00;92.10;;;;;;4976570;28;20191;-93
2023/07/15 08:35:01;;;;;;;2.60;1.58;;;28.10;93.00;;;;;;4976455;28;20204;-93
2023/07/15 08:37:27;;;;;;;2.83;1.70;;;28.20;93.00;;;;;;4976377;28;20648;-94
2023/07/15 08:39:53;;;;;;;2.00;1.45;;;28.30;92.50;;;;;;4976512;28;20182;-92
2023/07/15 08:42:19;;;;;;;3.92;1.77;;;28.30;91.60;;;;;;4976436;28;20533;-93
2023/07/15 08:44:47;;;;;;;2.50;1.45;;;28.40;91.00;;;;;;4976450;28;20216;-91
2023/07/15 08:47:19;;;;;;;4.05;1.70;;;28.40;91.40;;;;;;4976654;28;20164;-92
2023/07/15 08:49:45;;;;;;;4.40;1.75;;;28.50;92.30;;;;;;4992444;28;20297;-93
2023/07/15 08:52:12;;;;;;;3.60;1.70;;;28.60;91.10;;;;;;4976978;28;20263;-92
2023/07/15 08:54:39;;;;;;;5.80;1.60;;;28.70;91.50;;;;;;4979678;28;20207;-92
2023/07/15 08:57:07;;;;;;;5.50;1.30;;;28.80;91.20;;;;;;4980389;28;20171;-92
2023/07/15 08:59:33;;;;;;;2.28;1.48;;;28.90;91.30;;;;;;4980365;28;20182;-92
2023/07/15 09:01:59;;;;;;;2.67;1.80;;;29.10;90.60;;;;;;4979843;28;20188;-95
2023/07/15 09:04:25;;;;;;;5.22;1.50;;;29.20;90.40;;;;;;4979849;28;20210;-92
2023/07/15 09:06:54;;;;;;;2.20;1.50;;;29.30;90.40;;;;;;4979620;28;20175;-92
2023/07/15 09:09:48;;;;;;;3.53;1.70;;;29.40;90.30;;;;;;4979555;28;20321;-92
2023/07/15 09:12:14;;;;;;;3.50;1.33;;;29.60;90.30;;;;;;4979569;28;20535;-93
2023/07/15 09:14:45;;;;;;;2.95;1.23;;;29.60;90.60;;;;;;4979518;28;20209;-92
2023/07/15 09:17:20;;;;;;;2.45;1.20;;;29.70;90.00;;;;;;4979750;28;20258;-92
2023/07/15 09:19:46;;;;;;;2.60;1.40;;;29.80;88.10;;;;;;4979340;28;20175;-92
2023/07/15 09:22:12;;;;;;;5.57;1.42;;;29.80;89.60;;;;;;4979744;28;20202;-92
2023/07/15 09:24:39;;;;;;;6.55;1.70;;;29.80;86.80;;;;;;4979195;28;20199;-92
2023/07/15 09:27:06;;;;;;;3.00;1.50;;;30.00;90.10;;;;;;4979345;28;20175;-92
2023/07/15 09:29:32;;;;;;;1.90;1.30;;;30.00;89.40;;;;;;4979184;28;20694;-93
2023/07/15 09:31:59;;;;;;;3.35;1.67;;;30.10;86.60;;;;;;4979381;28;20171;-92
2023/07/15 09:34:25;;;;;;;3.40;1.70;;;30.10;88.00;;;;;;4979533;28;20203;-92
2023/07/15 09:36:52;;;;;;;2.85;1.60;;;30.20;87.30;;;;;;4979442;28;20171;-93
2023/07/15 09:39:22;;;;;;;2.60;1.50;;;30.40;86.60;;;;;;4979288;28;20182;-92
2023/07/15 09:42:07;;;;;;;2.53;1.40;;;30.60;90.00;;;;;;4979363;28;20183;-93
2023/07/15 09:44:38;;;;;;;1.70;1.30;;;30.70;86.90;;;;;;4996574;28;20278;-93
2023/07/15 09:47:04;;;;;;;2.55;1.55;;;30.60;86.00;;;;;;4995261;28;20222;-93
2023/07/15 09:49:31;;;;;;;5.57;1.30;;;30.60;88.60;;;;;;4978750;28;20733;-92
2023/07/15 09:51:58;;;;;;;1.85;1.20;;;30.60;88.00;;;;;;4979308;28;20709;-93
2023/07/15 09:54:27;;;;;;;5.85;1.27;;;30.60;86.30;;;;;;4978684;28;20195;-93
2023/07/15 09:56:59;;;;;;;3.95;1.48;;;30.70;85.60;;;;;;4979048;28;20171;-93
2023/07/15 09:59:28;;;;;;;3.13;1.00;;;30.60;83.70;;;;;;4979073;28;20471;-92
2023/07/15 10:01:58;;;;;;;3.83;1.27;;;30.60;86.10;;;;;;4978666;28;20186;-92
2023/07/15 10:04:35;;;;;;;2.35;1.15;;;30.60;86.70;;;;;;4978375;28;20214;-93
2023/07/15 10:07:03;;;;;;;4.03;1.25;;;30.60;87.70;;;;;;4978689;28;20309;-93
2023/07/15 10:09:31;;;;;;;1.42;1.02;;;30.80;86.80;;;;;;4978483;28;20196;-93
2023/07/15 10:11:58;;;;;;;2.13;1.08;;;31.00;85.90;;;;;;4978657;28;20624;-92
2023/07/15 10:14:27;;;;;;;2.00;1.20;;;31.10;85.40;;;;;;4978441;28;20285;-93
2023/07/15 10:17:16;;;;;;;3.47;1.40;;;31.20;84.60;;;;;;4978491;28;20167;-93
2023/07/15 10:20:05;;;;;;;2.85;1.10;;;31.40;84.80;;;;;;4978373;28;20168;-93
2023/07/15 10:22:35;;;;;;;3.55;0.98;;;31.80;84.10;;;;;;4978272;28;20183;-94
2023/07/15 10:25:03;;;;;;;2.83;1.30;;;31.90;82.30;;;;;;4978407;28;20255;-94
2023/07/15 10:27:30;;;;;;;4.80;1.15;;;31.60;80.90;;;;;;4978506;28;20163;-93
2023/07/15 10:30:17;;;;;;;1.92;1.10;;;31.50;82.30;;;;;;4978277;28;20256;-94
2023/07/15 10:32:58;;;;;;;4.43;1.30;;;31.20;82.10;;;;;;4978236;28;20564;-94
2023/07/15 10:35:33;;;;;;;2.13;1.10;;;30.90;82.30;;;;;;4978160;28;20205;-92
2023/07/15 10:38:23;;;;;;;4.15;1.10;;;30.60;83.50;;;;;;4978275;28;20194;-93
2023/07/15 10:40:57;;;;;;;4.32;1.42;;;30.40;82.80;;;;;;4966302;28;20294;-92
2023/07/15 10:43:35;;;;;;;2.00;1.17;;;30.20;82.90;;;;;;4978466;28;20167;-93
2023/07/15 10:46:10;;;;;;;1.73;1.40;;;30.00;83.90;;;;;;4977962;28;20230;-93
2023/07/15 10:48:37;;;;;;;2.53;1.17;;;29.90;85.10;;;;;;4977911;28;20206;-92
2023/07/15 10:51:08;;;;;;;1.80;1.20;;;29.70;85.30;;;;;;4977754;28;20227;-95
2023/07/15 10:53:34;;;;;;;3.35;1.30;;;29.50;84.50;;;;;;4978209;28;20202;-93
2023/07/15 10:56:11;;;;;;;4.75;1.83;;;29.50;86.60;;;;;;4977697;28;20191;-93
2023/07/15 10:58:40;;;;;;;4.15;1.63;;;29.40;87.80;;;;;;4977844;28;20188;-92
2023/07/15 11:01:08;;;;;;;4.50;1.30;;;29.40;85.70;;;;;;4977946;28;20179;-92
2023/07/15 11:03:37;;;;;;;3.90;1.65;;;29.40;86.50;;;;;;4977654;28;20171;-92
2023/07/15 11:06:04;;;;;;;3.08;1.70;;;29.40;87.00;;;;;;4977674;28;20227;-93
2023/07/15 11:08:30;;;;;;;5.65;1.75;;;29.30;87.10;;;;;;4977634;28;20238;-93
2023/07/15 11:11:04;;;;;;;5.10;1.40;;;29.30;87.30;;;;;;4993761;28;20202;-92
2023/07/15 11:13:31;;;;;;;4.43;1.27;;;29.10;89.20;;;;;;4977467;28;20172;-92
2023/07/15 11:15:58;;;;;;;12.95;1.88;;;29.00;87.80;;;;;;4976932;28;20275;-93
2023/07/15 11:18:27;;;;;;;3.67;1.80;;;28.90;89.10;;;;;;4977690;28;20222;-92
2023/07/15 11:20:56;;;;;;;4.35;1.48;;;28.70;90.20;;;;;;4978106;28;20194;-94
2023/07/15 11:23:22;;;;;;;3.47;1.70;;;28.60;89.30;;;;;;4977608;28;20191;-92
2023/07/15 11:25:48;;;;;;;3.72;1.73;;;28.50;89.90;;;;;;4977684;28;20792;-92
2023/07/15 11:28:16;;;;;;;4.43;1.75;;;28.30;90.50;;;;;;4977377;28;20186;-92
2023/07/15 11:30:44;;;;;;;3.90;1.60;;;28.10;90.50;;;;;;4977310;28;20178;-92
2023/07/15 11:33:10;;;;;;;5.68;1.90;;;28.00;91.00;;;;;;4977254;28;20172;-91
2023/07/15 11:35:39;;;;;;;3.33;1.83;;;27.80;91.70;;;;;;4977393;28;20722;-92
2023/07/15 11:38:27;;;;;;;6.85;1.77;;;27.60;92.50;;;;;;4993308;28;20172;-93
2023/07/15 11:40:59;;;;;;;5.78;1.77;;;27.40;93.20;;;;;;4976949;28;20198;-92
2023/07/15 11:43:27;;;;;;;3.47;1.80;;;27.20;94.10;;;;;;4976952;28;20662;-95
2023/07/15 11:45:57;;;;;;;3.78;1.65;;;27.10;95.70;;;;;;4976714;28;20258;-92
2023/07/15 11:48:26;;;;;;;4.45;1.70;;;26.90;96.70;;;;;;4976102;28;20175;-92
2023/07/15 11:50:56;;;;;;;2.97;1.90;;;26.60;97.60;;;;;;4976677;28;20315;-92
2023/07/15 11:53:44;;;;;;;2.33;1.33;;;26.30;98.40;;;;;;4976860;28;20172;-92
2023/07/15 11:56:10;;;;;;;4.65;1.40;;;26.10;99.90;;;;;;4977046;28;20226;-93
2023/07/15 11:58:42;;;;;;;1.92;1.40;;;26.00;99.30;;;;;;4974050;28;20190;-93
2023/07/15 12:01:15;;;;;;;4.22;1.63;;;25.90;99.90;;;;;;4974526;28;20172;-93
2023/07/15 12:03:43;;;;;;;2.05;1.50;;;25.80;99.90;;;;;;4976871;28;20576;-92
2023/07/15 12:06:13;;;;;;;5.63;1.70;;;25.70;99.90;;;;;;4976525;28;20262;-93
2023/07/15 12:08:39;;;;;;;6.00;1.48;;;25.70;99.90;;;;;;4976538;28;20215;-94
2023/07/15 12:11:05;;;;;;;4.18;1.48;;;25.70;99.90;;;;;;4975763;28;20698;-93
2023/07/15 12:13:31;;;;;;;5.47;1.60;;;25.80;99.90;;;;;;4975411;28;20176;-93
2023/07/15 12:15:56;;;;;;;6.30;1.63;;;25.80;99.90;;;;;;4976459;28;20659;-93
2023/07/15 12:18:22;;;;;;;4.68;1.40;;;25.70;99.90;;;;;;4976506;28;20194;-93
2023/07/15 12:20:48;;;;;;;2.88;1.50;;;25.70;99.70;;;;;;4976284;28;20195;-93
2023/07/15 12:23:14;;;;;;;2.45;1.55;;;25.60;99.90;;;;;;4976378;28;20175;-94
2023/07/15 12:25:39;;;;;;;2.75;1.65;;;25.50;99.90;;;;;;4976409;28;20191;-93
2023/07/15 12:28:05;;;;;;;2.53;1.60;;;25.50;99.90;;;;;;4978921;28;20174;-93
2023/07/15 12:30:31;;;;;;;3.38;1.40;;;25.40;99.90;;;;;;4980124;28;20648;-94
2023/07/15 12:32:57;;;;;;;4.03;1.70;;;25.30;99.90;;;;;;4980060;28;20168;-94
2023/07/15 12:35:22;;;;;;;4.07;1.55;;;25.20;99.90;;;;;;4980034;28;20195;-94
2023/07/15 12:37:49;;;;;;;2.22;1.48;;;25.20;99.90;;;;;;4979857;28;20179;-94
2023/07/15 12:40:15;;;;;;;2.00;1.50;;;25.20;99.90;;;;;;4978765;28;20164;-94
2023/07/15 12:42:41;;;;;;;3.53;1.58;;;25.20;99.90;;;;;;4979044;28;20179;-93
2023/07/15 12:45:07;;;;;;;2.83;1.63;;;25.20;99.90;;;;;;4978652;28;20571;-93
2023/07/15 12:47:32;;;;;;;3.03;1.45;;;25.30;99.90;;;;;;4979614;28;20203;-94
2023/07/15 12:49:58;;;;;;;2.67;1.52;;;25.30;99.90;;;;;;4979614;28;20252;-94
2023/07/15 12:52:24;;;;;;;3.13;1.60;;;25.30;99.90;;;;;;4996146;28;20172;-93